Data for 10/04/2015

Time Sea-Level Adjusted Pressure Absolute Pressure Temperature Relative Humidity Dew Point   
(mb) (inHg) (mb) (inHg) (C) (F) (%) (C) (F)
00:05 1023 30.21 852 25.16 0.8 33.5 88 -1 30.3
00:10 1023 30.21 852 25.16 0.8 33.4 88 -0.9 30.3
00:15 1023 30.21 852 25.16 0.8 33.5 88 -0.9 30.4
00:20 1023 30.21 852 25.16 0.8 33.5 88 -0.9 30.4
00:25 1023 30.21 852 25.16 0.8 33.4 88 -0.9 30.3
00:30 1023 30.21 852 25.16 0.8 33.5 88 -0.9 30.4
00:35 1023 30.21 852 25.16 0.8 33.5 89 -0.9 30.4
00:40 1023 30.21 852 25.16 0.8 33.5 89 -0.8 30.5
00:45 1023 30.21 852 25.16 0.8 33.4 89 -0.9 30.4
00:50 1023 30.21 852 25.16 0.8 33.4 89 -0.9 30.4
00:55 1023 30.21 852 25.16 0.8 33.4 88 -0.9 30.3
01:00 1023 30.21 852 25.16 0.8 33.4 89 -0.9 30.4
01:05 1023 30.21 852 25.16 0.8 33.5 88 -0.9 30.4
01:10 1023 30.21 852 25.16 0.8 33.4 88 -1 30.2
01:15 1023 30.21 852 25.16 0.8 33.4 88 -1 30.1
01:20 1023 30.21 852 25.16 0.8 33.5 87 -1.1 30.1
01:25 1023 30.21 852 25.16 0.8 33.4 87 -1.1 30.1
01:30 1023 30.21 852 25.16 0.8 33.4 88 -1 30.1
01:35 1023 30.21 852 25.16 0.8 33.4 88 -1 30.2
01:40 1023 30.21 852 25.16 0.7 33.3 88 -1.1 30.1
01:45 1023 30.21 852 25.16 0.7 33.3 88 -1 30.1
01:50 1023 30.21 852 25.16 0.8 33.4 88 -1.1 30.1
01:55 1023 30.21 852 25.16 0.8 33.4 87 -1.1 30
02:00 1023 30.21 852 25.16 0.8 33.4 87 -1.1 30
02:05 1023 30.21 852 25.16 0.8 33.5 87 -1.1 29.9
02:10 1023 30.21 852 25.16 0.9 33.5 87 -1.1 30.1
02:15 1022 30.18 852 25.16 0.8 33.5 87 -1.1 30.1
02:20 1022 30.18 852 25.16 0.9 33.6 87 -1.1 30.1
02:25 1022 30.18 852 25.16 0.8 33.5 86 -1.2 29.8
02:30 1022 30.18 852 25.16 0.8 33.5 87 -1.2 29.9
02:35 1022 30.18 852 25.16 0.9 33.6 86 -1.2 29.8
02:40 1022 30.18 852 25.16 0.9 33.6 86 -1.1 30
02:45 1022 30.18 852 25.16 0.9 33.6 86 -1.2 29.8
02:50 1022 30.18 852 25.16 0.9 33.6 86 -1.1 29.9
02:55 1022 30.18 852 25.16 0.9 33.6 86 -1.2 29.9
03:00 1022 30.18 852 25.16 0.9 33.6 87 -1.1 30
03:05 1022 30.18 852 25.16 0.8 33.5 87 -1.1 29.9
03:10 1022 30.18 852 25.16 0.8 33.4 87 -1.2 29.8
03:15 1022 30.18 852 25.16 0.8 33.4 87 -1.1 30.1
03:20 1022 30.18 852 25.16 0.8 33.4 87 -1.2 29.9
03:25 1022 30.18 852 25.16 0.8 33.4 87 -1.2 29.8
03:30 1022 30.18 852 25.16 0.8 33.5 87 -1.2 29.9
03:35 1022 30.18 852 25.16 0.8 33.5 87 -1.1 30
03:40 1023 30.21 852 25.16 0.9 33.6 87 -1.1 30
03:45 1023 30.21 852 25.16 0.9 33.6 87 -1.1 30
03:50 1022 30.18 852 25.16 0.9 33.6 87 -1.1 30
03:55 1022 30.18 852 25.16 0.9 33.6 86 -1.1 29.9
04:00 1022 30.18 852 25.16 0.9 33.6 86 -1.1 30
04:05 1022 30.18 852 25.16 0.9 33.6 86 -1.2 29.8
04:10 1022 30.18 852 25.16 0.8 33.5 86 -1.2 29.8
04:15 1022 30.18 852 25.16 0.8 33.5 87 -1.1 29.9
04:20 1022 30.18 852 25.16 0.8 33.5 86 -1.2 29.8
04:25 1022 30.18 852 25.16 0.9 33.6 86 -1.2 29.8
04:30 1022 30.18 852 25.16 0.9 33.6 86 -1.3 29.7
04:35 1022 30.18 852 25.16 0.8 33.5 86 -1.2 29.8
04:40 1022 30.18 852 25.16 0.8 33.5 86 -1.2 29.8
04:45 1022 30.18 852 25.16 0.8 33.5 86 -1.2 29.8
04:50 1023 30.21 852 25.16 0.8 33.4 86 -1.2 29.8
04:55 1023 30.21 852 25.16 0.9 33.6 86 -1.2 29.8
05:00 1023 30.21 852 25.16 0.8 33.5 86 -1.2 29.8
05:05 1023 30.21 852 25.16 0.8 33.5 86 -1.3 29.7
05:10 1022 30.18 852 25.16 0.9 33.6 86 -1.2 29.8
05:15 1022 30.18 852 25.16 0.9 33.6 85 -1.3 29.7
05:20 1022 30.18 852 25.16 0.9 33.6 85 -1.4 29.5
05:25 1022 30.18 852 25.16 1 33.7 84 -1.5 29.3
05:30 1022 30.18 852 25.16 0.9 33.7 83 -1.6 29.2
05:35 1022 30.18 852 25.16 0.9 33.6 84 -1.6 29.1
05:40 1022 30.18 852 25.16 0.9 33.6 84 -1.6 29.2
05:45 1022 30.18 852 25.16 0.9 33.6 83 -1.6 29.1
05:50 1022 30.18 852 25.16 0.9 33.7 83 -1.6 29.1
05:55 1022 30.18 851 25.13 0.8 33.5 83 -1.7 28.9
06:00 1022 30.18 851 25.13 0.9 33.6 83 -1.6 29.1
06:05 1022 30.18 851 25.13 0.9 33.6 83 -1.7 29
06:10 1022 30.18 851 25.13 0.8 33.4 84 -1.6 29
06:15 1022 30.18 851 25.13 0.8 33.4 84 -1.7 29
06:20 1022 30.18 851 25.13 0.8 33.4 84 -1.6 29.1
06:25 1022 30.18 851 25.13 0.8 33.4 84 -1.6 29.1
06:30 1022 30.18 852 25.16 0.8 33.4 84 -1.6 29.1
06:35 1022 30.18 852 25.16 0.8 33.4 84 -1.7 29
06:40 1022 30.18 852 25.16 0.8 33.4 84 -1.7 29
06:45 1022 30.18 852 25.16 0.8 33.4 84 -1.7 28.9
06:50 1022 30.18 852 25.16 0.7 33.3 84 -1.6 29.1
06:55 1022 30.18 852 25.16 0.8 33.5 84 -1.7 29
07:00 1022 30.18 852 25.16 0.9 33.7 83 -1.6 29.1
07:05 1023 30.21 852 25.16 0.9 33.7 84 -1.5 29.3
07:10 1023 30.21 852 25.16 1 33.8 83 -1.6 29.1
07:15 1023 30.21 852 25.16 1.1 33.9 82 -1.7 29
07:20 1022 30.18 852 25.16 1.1 34 81 -1.7 29
07:25 1022 30.18 852 25.16 1.2 34.2 81 -1.7 29
07:30 1022 30.18 852 25.16 1.2 34.1 81 -1.8 28.8
07:35 1022 30.18 852 25.16 1.1 34 80 -1.9 28.6
07:40 1022 30.18 852 25.16 1.2 34.1 81 -1.8 28.8
07:45 1022 30.18 852 25.16 1.1 34 81 -1.8 28.7
07:50 1022 30.18 852 25.16 1.2 34.2 81 -1.7 28.9
07:55 1022 30.18 852 25.16 1.3 34.3 79 -2 28.4
08:00 1023 30.21 852 25.16 1.3 34.3 79 -2 28.5
08:05 1023 30.21 852 25.16 1.4 34.5 78 -2 28.4
08:10 1023 30.21 852 25.16 1.3 34.4 78 -2.1 28.2
08:15 1023 30.21 852 25.16 1.3 34.3 78 -2.1 28.2
08:20 1023 30.21 852 25.16 1.3 34.3 78 -2.2 28.1
08:25 1023 30.21 852 25.16 1.2 34.2 79 -2 28.4
08:30 1023 30.21 852 25.16 1.2 34.1 81 -1.8 28.8
08:35 1023 30.21 852 25.16 1.2 34.1 79 -2 28.4
08:40 1023 30.21 852 25.16 1.2 34.1 81 -1.7 28.9
08:45 1023 30.21 852 25.16 1.2 34.1 82 -1.6 29.1
08:50 1023 30.21 852 25.16 1.2 34.1 83 -1.5 29.4
08:55 1023 30.21 852 25.16 1.2 34.2 81 -1.7 29
09:00 1023 30.21 852 25.16 1.3 34.3 79 -2 28.3
09:05 1023 30.21 852 25.16 1.2 34.2 80 -1.8 28.7
09:10 1023 30.21 852 25.16 1.5 34.7 78 -1.9 28.6
09:15 1023 30.21 852 25.16 1.6 34.9 77 -2 28.5
09:20 1023 30.21 852 25.16 1.8 35.3 76 -1.9 28.5
09:25 1023 30.21 852 25.16 2 35.5 75 -2 28.4
09:30 1023 30.21 852 25.16 2.2 36 75 -1.8 28.7
09:35 1023 30.21 852 25.16 2.3 36.1 75 -1.8 28.8
09:40 1023 30.21 852 25.16 2.3 36.2 73 -2 28.4
09:45 1023 30.21 852 25.16 2.2 35.9 74 -2 28.3
09:50 1023 30.21 852 25.16 2.4 36.2 72 -2.2 28
09:55 1023 30.21 852 25.16 2.2 35.9 75 -1.9 28.7
10:00 1023 30.21 852 25.16 2.5 36.5 71 -2.2 28.1
10:05 1023 30.21 852 25.16 2.4 36.3 72 -2.1 28.2
10:10 1023 30.21 852 25.16 2.5 36.6 73 -1.9 28.6
10:15 1023 30.21 852 25.16 2.5 36.6 74 -1.7 29
10:20 1022 30.18 852 25.16 2.7 36.8 71 -2 28.3
10:25 1022 30.18 852 25.16 2.7 36.9 72 -1.8 28.8
10:30 1022 30.18 852 25.16 3.3 37.9 70 -1.7 28.9
10:35 1022 30.18 852 25.16 3.5 38.3 69 -1.6 29.1
10:40 1022 30.18 851 25.13 2.9 37.2 71 -1.8 28.8
10:45 1022 30.18 851 25.13 3.1 37.6 71 -1.7 28.9
10:50 1022 30.18 851 25.13 3.2 37.7 70 -1.8 28.7
10:55 1022 30.18 851 25.13 3.5 38.3 69 -1.7 28.9
11:00 1022 30.18 851 25.13 4 39.2 66 -1.7 29
11:05 1022 30.18 851 25.13 4 39.3 68 -1.3 29.7
11:10 1022 30.18 851 25.13 4 39.2 67 -1.5 29.4
11:15 1022 30.18 851 25.13 4.1 39.4 67 -1.5 29.4
11:20 1022 30.18 851 25.13 4.3 39.8 66 -1.4 29.5
11:25 1022 30.18 851 25.13 4.7 40.5 64 -1.5 29.2
11:30 1021 30.15 851 25.13 4 39.1 68 -1.5 29.3
11:35 1021 30.15 851 25.13 4.4 40 63 -2 28.3
11:40 1021 30.15 850 25.1 5.4 41.8 60 -1.7 29
11:45 1021 30.15 851 25.13 5.7 42.3 59 -1.6 29.1
11:50 1021 30.15 850 25.1 5 40.9 61 -2 28.4
11:55 1021 30.15 850 25.1 5.2 41.4 60 -2 28.4
12:00 1021 30.15 850 25.1 6 42.8 57 -1.8 28.8
12:05 1021 30.15 850 25.1 7.3 45.1 52 -2 28.5
12:10 1021 30.15 850 25.1 7.4 45.3 53 -1.7 29
12:15 1021 30.15 850 25.1 7.9 46.2 52 -1.3 29.6
12:20 1021 30.15 850 25.1 7.5 45.5 54 -1.1 30.1
12:25 1021 30.15 850 25.1 7.3 45.1 53 -1.5 29.2
12:30 1021 30.15 850 25.1 7.6 45.7 53 -1.3 29.6
12:35 1021 30.15 850 25.1 7.3 45.1 54 -1.4 29.5
12:40 1021 30.15 850 25.1 6.6 43.8 57 -1.3 29.6
12:45 1021 30.15 850 25.1 6.3 43.3 57 -1.5 29.3
12:50 1021 30.15 850 25.1 6.4 43.6 55 -1.9 28.7
12:55 1020 30.12 850 25.1 6.8 44.3 55 -1.5 29.3
13:00 1020 30.12 850 25.1 6.6 43.9 56 -1.5 29.3
13:05 1020 30.12 850 25.1 6.7 44.1 56 -1.5 29.3
13:10 1020 30.12 850 25.1 6.8 44.3 56 -1.3 29.7
13:15 1020 30.12 849 25.07 6.3 43.4 56 -1.8 28.7
13:20 1020 30.12 849 25.07 7 44.6 54 -1.6 29.1
13:25 1020 30.12 849 25.07 6.9 44.3 55 -1.5 29.2
13:30 1020 30.12 849 25.07 6.8 44.2 55 -1.6 29
13:35 1020 30.12 849 25.07 6.6 43.8 56 -1.6 29.2
13:40 1020 30.12 849 25.07 6.7 44 56 -1.5 29.2
13:45 1020 30.12 849 25.07 7 44.7 55 -1.5 29.4
13:50 1020 30.12 849 25.07 7.1 44.9 53 -1.7 28.9
13:55 1020 30.12 849 25.07 7.1 44.8 56 -1 30.2
14:00 1019 30.09 849 25.07 6.9 44.4 54 -1.8 28.8
14:05 1019 30.09 849 25.07 7.4 45.2 54 -1.3 29.6
14:10 1019 30.09 849 25.07 7.8 46.1 53 -1.2 29.8
14:15 1019 30.09 848 25.04 7.6 45.7 55 -0.9 30.4
14:20 1019 30.09 848 25.04 7.2 45 54 -1.3 29.6
14:25 1019 30.09 848 25.04 7.6 45.8 54 -1.2 29.9
14:30 1019 30.09 848 25.04 7.8 46 53 -1.3 29.7
14:35 1019 30.09 848 25.04 7.6 45.7 54 -1.2 29.9
14:40 1019 30.09 848 25.04 7.7 45.8 54 -0.9 30.4
14:45 1019 30.09 848 25.04 8 46.4 53 -1.1 30.1
14:50 1019 30.09 848 25.04 8.1 46.7 55 -0.3 31.4
14:55 1019 30.09 848 25.04 7.2 45 57 -0.6 30.9
15:00 1019 30.09 848 25.04 7.4 45.2 56 -0.8 30.6
15:05 1019 30.09 848 25.04 7.6 45.6 57 -0.5 31.2
15:10 1019 30.09 848 25.04 7.5 45.5 57 -0.3 31.4
15:15 1019 30.09 848 25.04 7.7 45.9 54 -0.9 30.4
15:20 1019 30.09 848 25.04 8.2 46.7 54 -0.6 30.9
15:25 1019 30.09 848 25.04 8.2 46.8 54 -0.6 30.9
15:30 1019 30.09 848 25.04 7.7 45.9 55 -0.6 30.9
15:35 1019 30.09 848 25.04 7.7 45.8 56 -0.6 30.9
15:40 1019 30.09 848 25.04 7.9 46.2 56 -0.2 31.6
15:45 1019 30.09 848 25.04 7.7 45.9 56 -0.4 31.3
15:50 1019 30.09 848 25.04 7.7 45.8 56 -0.5 31.1
15:55 1019 30.09 848 25.04 7.7 45.9 57 -0.3 31.4
16:00 1019 30.09 848 25.04 7.8 46 57 -0.1 31.8
16:05 1019 30.09 848 25.04 7.6 45.7 57 -0.4 31.3
16:10 1019 30.09 848 25.04 7.5 45.6 57 -0.3 31.4
16:15 1019 30.09 848 25.04 7.5 45.4 58 -0.2 31.6
16:20 1019 30.09 848 25.04 7.5 45.5 59 -0.1 31.8
16:25 1019 30.09 848 25.04 7.2 45 59 -0.2 31.7
16:30 1019 30.09 848 25.04 7.2 44.9 60 -0.1 31.9
16:35 1019 30.09 848 25.04 7.1 44.9 60 -0.1 31.8
16:40 1019 30.09 848 25.04 7 44.6 61 0 32.1
16:45 1019 30.09 848 25.04 6.9 44.4 62 0.1 32.2
16:50 1019 30.09 848 25.04 6.8 44.2 62 -0 31.9
16:55 1019 30.09 848 25.04 6.8 44.3 62 0.1 32.2
17:00 1019 30.09 848 25.04 6.8 44.3 63 0.3 32.5
17:05 1019 30.09 848 25.04 6.7 44.1 64 0.4 32.6
17:10 1019 30.09 848 25.04 6.6 43.9 63 0.2 32.4
17:15 1019 30.09 848 25.04 6.7 44.1 63 0.2 32.4
17:20 1019 30.09 848 25.04 6.7 44.1 64 0.3 32.6
17:25 1019 30.09 848 25.04 6.8 44.3 64 0.4 32.8
17:30 1019 30.09 848 25.04 6.8 44.2 64 0.4 32.7
17:35 1018 30.06 848 25.04 6.8 44.2 64 0.4 32.7
17:40 1018 30.06 848 25.04 6.7 44.1 61 -0.2 31.6
17:45 1018 30.06 848 25.04 6.7 44 61 -0.3 31.4
17:50 1018 30.06 848 25.04 6.7 44 61 -0.2 31.6
17:55 1018 30.06 848 25.04 6.6 43.9 62 -0.2 31.6
18:00 1018 30.06 848 25.04 6.6 43.8 62 -0.2 31.6
18:05 1018 30.06 848 25.04 6.5 43.7 62 -0.2 31.7
18:10 1018 30.06 848 25.04 6.5 43.7 63 -0.1 31.8
18:15 1018 30.06 848 25.04 6.4 43.5 64 0 32
18:20 1018 30.06 848 25.04 6.3 43.3 64 -0.1 31.9
18:25 1018 30.06 848 25.04 6.2 43.1 64 -0.2 31.7
18:30 1018 30.06 848 25.04 6 42.9 65 -0.1 31.8
18:35 1018 30.06 848 25.04 6 42.8 64 -0.2 31.6
18:40 1018 30.06 848 25.04 5.9 42.6 65 -0.2 31.6
18:45 1018 30.06 848 25.04 5.9 42.6 64 -0.3 31.4
18:50 1018 30.06 848 25.04 5.8 42.5 64 -0.4 31.3
18:55 1018 30.06 848 25.04 5.8 42.4 65 -0.3 31.4
19:00 1018 30.06 848 25.04 5.7 42.2 65 -0.3 31.4
19:05 1018 30.06 848 25.04 5.6 42.1 66 -0.3 31.5
19:10 1019 30.09 848 25.04 5.6 42.1 66 -0.3 31.5
19:15 1019 30.09 848 25.04 5.6 42 66 -0.3 31.4
19:20 1019 30.09 848 25.04 5.5 42 66 -0.3 31.4
19:25 1019 30.09 848 25.04 5.5 42 66 -0.3 31.4
19:30 1019 30.09 848 25.04 5.5 41.9 66 -0.4 31.3
19:35 1019 30.09 848 25.04 5.5 41.8 65 -0.5 31.1
19:40 1019 30.09 848 25.04 5.5 41.8 65 -0.5 31.1
19:45 1019 30.09 848 25.04 5.4 41.7 65 -0.6 30.9
19:50 1019 30.09 848 25.04 5.4 41.7 65 -0.6 30.9
19:55 1019 30.09 848 25.04 5.4 41.7 66 -0.5 31.1
20:00 1019 30.09 848 25.04 5.3 41.6 66 -0.5 31.2
20:05 1019 30.09 848 25.04 5.2 41.4 66 -0.5 31.1
20:10 1019 30.09 848 25.04 5.2 41.4 66 -0.5 31.1
20:15 1019 30.09 848 25.04 5.2 41.4 67 -0.5 31.2
20:20 1019 30.09 848 25.04 5.2 41.3 67 -0.4 31.2
20:25 1019 30.09 848 25.04 5.2 41.3 67 -0.4 31.2
20:30 1019 30.09 848 25.04 5.2 41.3 68 -0.3 31.4
20:35 1019 30.09 848 25.04 5.1 41.2 68 -0.3 31.4
20:40 1019 30.09 848 25.04 5.1 41.2 68 -0.3 31.5
20:45 1019 30.09 848 25.04 5.1 41.2 68 -0.3 31.5
20:50 1019 30.09 848 25.04 5.1 41.1 69 -0.2 31.6
20:55 1019 30.09 848 25.04 5 41 69 -0.2 31.6
21:00 1019 30.09 848 25.04 5 41 69 -0.2 31.6
21:05 1019 30.09 848 25.04 5 40.9 69 -0.2 31.6
21:10 1019 30.09 848 25.04 5 40.9 69 -0.2 31.7
21:15 1019 30.09 848 25.04 4.9 40.9 70 -0.1 31.7
21:20 1019 30.09 848 25.04 4.9 40.8 70 -0.1 31.8
21:25 1019 30.09 848 25.04 4.9 40.8 70 -0.1 31.8
21:30 1019 30.09 849 25.07 4.8 40.7 70 -0.1 31.8
21:35 1019 30.09 849 25.07 4.8 40.6 71 0 32
21:40 1019 30.09 849 25.07 4.7 40.4 71 -0 31.9
21:45 1019 30.09 849 25.07 4.7 40.4 72 0 32
21:50 1019 30.09 848 25.04 4.6 40.3 72 -0 32
21:55 1019 30.09 848 25.04 4.6 40.3 72 0 32
22:00 1019 30.09 848 25.04 4.6 40.3 72 0.1 32.1
22:05 1019 30.09 848 25.04 4.5 40.2 73 0.1 32.2
22:10 1019 30.09 848 25.04 4.5 40.1 73 0.1 32.2
22:15 1019 30.09 848 25.04 4.5 40 74 0.1 32.3
22:20 1019 30.09 848 25.04 4.4 39.9 74 0.2 32.3
22:25 1019 30.09 848 25.04 4.4 39.9 74 0.2 32.3
22:30 1019 30.09 848 25.04 4.4 39.9 74 0.2 32.4
22:35 1019 30.09 848 25.04 4.4 39.9 74 0.2 32.4
22:40 1019 30.09 848 25.04 4.4 39.9 74 0.2 32.4
22:45 1019 30.09 848 25.04 4.4 39.9 74 0.2 32.4
22:50 1019 30.09 848 25.04 4.4 39.8 75 0.2 32.4
22:55 1019 30.09 848 25.04 4.3 39.7 75 0.3 32.5
23:00 1019 30.09 848 25.04 4.2 39.6 76 0.3 32.5
23:05 1019 30.09 848 25.04 4.2 39.5 76 0.3 32.6
23:10 1019 30.09 848 25.04 4.1 39.4 76 0.3 32.6
23:15 1019 30.09 848 25.04 4.1 39.3 77 0.3 32.6
23:20 1019 30.09 848 25.04 4 39.2 77 0.3 32.6
23:25 1019 30.09 848 25.04 3.9 39 78 0.4 32.7
23:30 1019 30.09 848 25.04 3.8 38.8 78 0.4 32.7
23:35 1019 30.09 848 25.04 3.6 38.5 80 0.4 32.8
23:40 1019 30.09 848 25.04 3.4 38.2 81 0.4 32.7
23:45 1019 30.09 848 25.04 3.4 38.2 80 0.4 32.7
23:50 1019 30.09 848 25.04 3.5 38.3 80 0.4 32.7
23:55 1019 30.09 848 25.04 3.5 38.3 80 0.4 32.7
24:00 1019 30.09 848 25.04 3.6 38.4 80 0.4 32.8